Time,TemperatureF,DewpointF,PressureIn,WindDirection,WindDirectionDegrees,WindSpeedMPH,WindSpeedGustMPH,Humidity,HourlyPrecipIn,Conditions,Clouds,dailyrainin,SolarRadiationWatts/m^2,SoftwareType,DateUTC
2013-11-19 00:01:00,37.0,32.0,-100.00,East,79,1.0,3.0,83,-99.99,,,0.00,0.000000,,2013-11-19 08:01:00,
2013-11-19 00:02:00,38.0,33.0,-100.00,ESE,113,1.0,5.0,83,-99.99,,,0.00,0.000000,,2013-11-19 08:02:00,
2013-11-19 00:22:00,38.0,33.0,-100.00,ESE,113,1.0,5.0,83,-99.99,,,0.00,0.000000,,2013-11-19 08:22:00,
2013-11-19 00:32:00,38.0,33.0,-100.00,ESE,113,1.0,5.0,83,-99.99,,,0.00,0.000000,,2013-11-19 08:32:00,
2013-11-19 00:42:00,38.0,33.0,-100.00,ESE,113,1.0,5.0,83,-99.99,,,0.00,0.000000,,2013-11-19 08:42:00,
2013-11-19 00:52:00,38.0,33.0,-100.00,ESE,113,1.0,5.0,83,-99.99,,,0.00,0.000000,,2013-11-19 08:52:00,
2013-11-19 01:02:00,38.0,34.0,-100.00,NNW,347,0.0,5.0,84,0.00,,,0.00,0.000000,,2013-11-19 09:02:00,
2013-11-19 01:43:00,38.0,34.0,-100.00,NNW,347,0.0,5.0,84,0.00,,,0.00,0.000000,,2013-11-19 09:43:00,
2013-11-19 01:53:00,38.0,34.0,-100.00,NNW,347,0.0,5.0,84,0.00,,,0.00,0.000000,,2013-11-19 09:53:00,
2013-11-19 02:43:00,39.0,35.0,-100.00,North,4,1.0,4.0,84,0.00,,,0.00,0.000000,,2013-11-19 10:43:00,
2013-11-19 02:53:00,39.0,35.0,-100.00,North,4,1.0,4.0,84,0.00,,,0.00,0.000000,,2013-11-19 10:53:00,
2013-11-19 03:01:00,39.0,35.0,-100.00,North,4,1.0,4.0,84,0.00,,,0.00,0.000000,,2013-11-19 11:01:00,
2013-11-19 03:42:00,39.0,37.0,-100.00,ENE,65,0.0,3.0,91,0.00,,,0.00,0.000000,,2013-11-19 11:42:00,
2013-11-19 03:52:00,39.0,37.0,-100.00,ENE,65,0.0,3.0,91,0.00,,,0.00,0.000000,,2013-11-19 11:52:00,
2013-11-19 04:01:00,39.0,37.0,-100.00,ENE,65,0.0,3.0,91,0.00,,,0.00,0.000000,,2013-11-19 12:01:00,
2013-11-19 04:42:00,37.0,36.0,-100.00,SE,146,0.0,4.0,96,0.01,,,0.01,0.000000,,2013-11-19 12:42:00,
2013-11-19 04:52:00,37.0,36.0,-100.00,SE,146,0.0,4.0,96,0.01,,,0.01,0.000000,,2013-11-19 12:52:00,
2013-11-19 05:01:00,37.0,36.0,-100.00,SE,146,0.0,4.0,96,0.01,,,0.01,0.000000,,2013-11-19 13:01:00,
2013-11-19 06:42:00,37.0,36.0,-100.00,ENE,68,0.0,3.0,98,-99.99,,,0.03,0.000000,,2013-11-19 14:42:00,
2013-11-19 06:52:00,37.0,36.0,-100.00,ENE,68,0.0,3.0,98,-99.99,,,0.03,0.000000,,2013-11-19 14:52:00,
2013-11-19 07:01:00,37.0,36.0,-100.00,ENE,68,0.0,3.0,98,-99.99,,,0.03,0.000000,,2013-11-19 15:01:00,
2013-11-19 07:02:00,38.0,37.0,-100.00,East,92,0.0,2.0,98,0.00,,,0.03,1.000000,,2013-11-19 15:02:00,
2013-11-19 07:43:00,38.0,37.0,-100.00,East,92,0.0,2.0,98,0.00,,,0.03,1.000000,,2013-11-19 15:43:00,
2013-11-19 07:54:00,38.0,37.0,-100.00,East,92,0.0,2.0,98,0.00,,,0.03,1.000000,,2013-11-19 15:54:00,
2013-11-19 08:02:00,39.0,38.0,-100.00,NE,37,0.0,2.0,98,0.00,,,0.03,27.000000,,2013-11-19 16:02:00,
2013-11-19 08:43:00,39.0,38.0,-100.00,NE,37,0.0,2.0,98,0.00,,,0.03,27.000000,,2013-11-19 16:43:00,
2013-11-19 08:52:00,39.0,38.0,-100.00,NE,37,0.0,2.0,98,0.00,,,0.03,27.000000,,2013-11-19 16:52:00,
2013-11-19 09:23:00,41.0,40.0,-100.00,West,271,0.0,2.0,96,0.00,,,0.03,75.000000,,2013-11-19 17:23:00,
2013-11-19 09:32:00,41.0,40.0,-100.00,West,271,0.0,2.0,96,0.00,,,0.03,75.000000,,2013-11-19 17:32:00,
2013-11-19 09:43:00,41.0,40.0,-100.00,West,271,0.0,2.0,96,0.00,,,0.03,75.000000,,2013-11-19 17:43:00,
2013-11-19 09:52:00,41.0,40.0,-100.00,West,271,0.0,2.0,96,0.00,,,0.03,75.000000,,2013-11-19 17:52:00,
2013-11-19 10:01:00,41.0,40.0,-100.00,West,271,0.0,2.0,96,0.00,,,0.03,75.000000,,2013-11-19 18:01:00,
2013-11-19 10:23:00,46.0,42.0,-100.00,ESE,117,0.0,2.0,86,0.00,,,0.03,183.000000,,2013-11-19 18:23:00,
2013-11-19 10:32:00,46.0,42.0,-100.00,ESE,117,0.0,2.0,86,0.00,,,0.03,183.000000,,2013-11-19 18:32:00,
2013-11-19 10:42:00,46.0,42.0,-100.00,ESE,117,0.0,2.0,86,0.00,,,0.03,183.000000,,2013-11-19 18:42:00,
2013-11-19 10:52:00,46.0,42.0,-100.00,ESE,117,0.0,2.0,86,0.00,,,0.03,183.000000,,2013-11-19 18:52:00,
2013-11-19 11:01:00,46.0,42.0,-100.00,ESE,117,0.0,2.0,86,0.00,,,0.03,183.000000,,2013-11-19 19:01:00,
2013-11-19 11:22:00,45.0,41.0,-100.00,SE,139,1.0,4.0,87,0.00,,,0.03,127.000000,,2013-11-19 19:22:00,
2013-11-19 11:32:00,45.0,41.0,-100.00,SE,139,1.0,4.0,87,0.00,,,0.03,127.000000,,2013-11-19 19:32:00,
2013-11-19 11:42:00,45.0,41.0,-100.00,SE,139,1.0,4.0,87,0.00,,,0.03,127.000000,,2013-11-19 19:42:00,
2013-11-19 11:52:00,45.0,41.0,-100.00,SE,139,1.0,4.0,87,0.00,,,0.03,127.000000,,2013-11-19 19:52:00,
2013-11-19 12:01:00,45.0,41.0,-100.00,SE,139,1.0,4.0,87,0.00,,,0.03,127.000000,,2013-11-19 20:01:00,
2013-11-19 12:02:00,50.0,42.0,-100.00,WNW,282,1.0,3.0,74,0.00,,,0.03,224.000000,,2013-11-19 20:02:00,
2013-11-19 12:42:00,50.0,42.0,-100.00,WNW,282,1.0,3.0,74,0.00,,,0.03,224.000000,,2013-11-19 20:42:00,
2013-11-19 12:52:00,50.0,42.0,-100.00,WNW,282,1.0,3.0,74,0.00,,,0.03,224.000000,,2013-11-19 20:52:00,
2013-11-19 13:02:00,48.0,41.0,-100.00,NNW,346,1.0,7.0,76,0.00,,,0.03,165.000000,,2013-11-19 21:02:00,
2013-11-19 13:22:00,48.0,41.0,-100.00,NNW,346,1.0,7.0,76,0.00,,,0.03,165.000000,,2013-11-19 21:22:00,
2013-11-19 13:33:00,48.0,41.0,-100.00,NNW,346,1.0,7.0,76,0.00,,,0.03,165.000000,,2013-11-19 21:33:00,
2013-11-19 13:43:00,48.0,41.0,-100.00,NNW,346,1.0,7.0,76,0.00,,,0.03,165.000000,,2013-11-19 21:43:00,
2013-11-19 13:54:00,48.0,41.0,-100.00,NNW,346,1.0,7.0,76,0.00,,,0.03,165.000000,,2013-11-19 21:54:00,
2013-11-19 14:02:00,47.0,40.0,-100.00,North,355,1.0,6.0,77,0.00,,,0.03,95.000000,,2013-11-19 22:02:00,
2013-11-19 14:23:00,47.0,40.0,-100.00,North,355,1.0,6.0,77,0.00,,,0.03,95.000000,,2013-11-19 22:23:00,
2013-11-19 14:33:00,47.0,40.0,-100.00,North,355,1.0,6.0,77,0.00,,,0.03,95.000000,,2013-11-19 22:33:00,
2013-11-19 14:43:00,47.0,40.0,-100.00,North,355,1.0,6.0,77,0.00,,,0.03,95.000000,,2013-11-19 22:43:00,
2013-11-19 14:53:00,47.0,40.0,-100.00,North,355,1.0,6.0,77,0.00,,,0.03,95.000000,,2013-11-19 22:53:00,
2013-11-19 15:02:00,46.0,41.0,-100.00,NNW,327,2.0,5.0,84,0.00,,,0.03,90.000000,,2013-11-19 23:02:00,
2013-11-19 15:22:00,46.0,41.0,-100.00,NNW,327,2.0,5.0,84,0.00,,,0.03,90.000000,,2013-11-19 23:22:00,
2013-11-19 15:32:00,46.0,41.0,-100.00,NNW,327,2.0,5.0,84,0.00,,,0.03,90.000000,,2013-11-19 23:32:00,
2013-11-19 15:43:00,46.0,41.0,-100.00,NNW,327,2.0,5.0,84,0.00,,,0.03,90.000000,,2013-11-19 23:43:00,
2013-11-19 15:52:00,46.0,41.0,-100.00,NNW,327,2.0,5.0,84,0.00,,,0.03,90.000000,,2013-11-19 23:52:00,
2013-11-19 16:22:00,44.0,40.0,-100.00,NW,324,1.0,4.0,87,0.00,,,0.03,45.000000,,2013-11-20 00:22:00,
2013-11-19 16:32:00,44.0,40.0,-100.00,NW,324,1.0,4.0,87,0.00,,,0.03,45.000000,,2013-11-20 00:32:00,
2013-11-19 16:42:00,44.0,40.0,-100.00,NW,324,1.0,4.0,87,0.00,,,0.03,45.000000,,2013-11-20 00:42:00,
2013-11-19 16:52:00,44.0,40.0,-100.00,NW,324,1.0,4.0,87,0.00,,,0.03,45.000000,,2013-11-20 00:52:00,
2013-11-19 17:01:00,44.0,40.0,-100.00,NW,324,1.0,4.0,87,0.00,,,0.03,45.000000,,2013-11-20 01:01:00,
2013-11-19 17:42:00,43.0,41.0,-100.00,SW,230,0.0,3.0,91,0.00,,,0.03,9.000000,,2013-11-20 01:42:00,
2013-11-19 17:52:00,43.0,41.0,-100.00,SW,230,0.0,3.0,91,0.00,,,0.03,9.000000,,2013-11-20 01:52:00,
2013-11-19 18:01:00,43.0,41.0,-100.00,SW,230,0.0,3.0,91,0.00,,,0.03,9.000000,,2013-11-20 02:01:00,
2013-11-19 18:02:00,42.0,40.0,-100.00,ENE,62,0.0,2.0,94,0.00,,,0.03,0.000000,,2013-11-20 02:02:00,
2013-11-19 18:22:00,42.0,40.0,-100.00,ENE,62,0.0,2.0,94,0.00,,,0.03,0.000000,,2013-11-20 02:22:00,
2013-11-19 18:32:00,42.0,40.0,-100.00,ENE,62,0.0,2.0,94,0.00,,,0.03,0.000000,,2013-11-20 02:32:00,
2013-11-19 18:42:00,42.0,40.0,-100.00,ENE,62,0.0,2.0,94,0.00,,,0.03,0.000000,,2013-11-20 02:42:00,
2013-11-19 18:52:00,42.0,40.0,-100.00,ENE,62,0.0,2.0,94,0.00,,,0.03,0.000000,,2013-11-20 02:52:00,
2013-11-19 19:02:00,42.0,41.0,-100.00,NE,46,0.0,1.0,97,0.01,,,0.04,0.000000,,2013-11-20 03:02:00,
2013-11-19 19:44:00,42.0,41.0,-100.00,NE,46,0.0,1.0,97,0.01,,,0.04,0.000000,,2013-11-20 03:44:00,
2013-11-19 19:54:00,42.0,41.0,-100.00,NE,46,0.0,1.0,97,0.01,,,0.04,0.000000,,2013-11-20 03:54:00,
2013-11-19 20:02:00,41.0,40.0,-100.00,NW,305,1.0,3.0,98,0.01,,,0.05,0.000000,,2013-11-20 04:02:00,
2013-11-19 20:43:00,41.0,40.0,-100.00,NW,305,1.0,3.0,98,0.01,,,0.05,0.000000,,2013-11-20 04:43:00,
2013-11-19 20:52:00,41.0,40.0,-100.00,NW,305,1.0,3.0,98,0.01,,,0.05,0.000000,,2013-11-20 04:52:00,
2013-11-19 21:02:00,41.0,40.0,-100.00,South,169,0.0,3.0,98,0.05,,,0.10,0.000000,,2013-11-20 05:02:00,
2013-11-19 21:43:00,41.0,40.0,-100.00,South,169,0.0,3.0,98,0.05,,,0.10,0.000000,,2013-11-20 05:43:00,
2013-11-19 21:53:00,41.0,40.0,-100.00,South,169,0.0,3.0,98,0.05,,,0.10,0.000000,,2013-11-20 05:53:00,
2013-11-19 22:42:00,41.0,40.0,-100.00,ENE,60,0.0,4.0,98,0.07,,,0.17,0.000000,,2013-11-20 06:42:00,
2013-11-19 22:52:00,41.0,40.0,-100.00,ENE,60,0.0,4.0,98,0.07,,,0.17,0.000000,,2013-11-20 06:52:00,
2013-11-19 23:01:00,41.0,40.0,-100.00,ENE,60,0.0,4.0,98,0.07,,,0.17,0.000000,,2013-11-20 07:01:00,
2013-11-19 23:02:00,40.0,39.0,-100.00,East,99,0.0,2.0,98,0.07,,,0.24,0.000000,,2013-11-20 07:02:00,
2013-11-19 23:42:00,40.0,39.0,-100.00,East,99,0.0,2.0,98,0.07,,,0.24,0.000000,,2013-11-20 07:42:00,
2013-11-19 23:52:00,40.0,39.0,-100.00,East,99,0.0,2.0,98,0.07,,,0.24,0.000000,,2013-11-20 07:52:00,